Decoded Metar for LEBL (BARCELONA in SPAIN) (IATA:BCN) | Meteo·Mobile Aviation Weather
aviador You're here:

LEBL Decoded Metar

BARCELONA in SPAIN
Report Time2018-08-19 04:00:00
UTC Time2018-08-19 04:28:30
Flight Rules vfr VFR
Wind310° at 11 kt
W.Decomp.*RWY 25: 5.5 kt HW 9.5 kt RCW
RWY 02: 3.8 kt HW 10.3 kt LCW
W.Rank310° ranks 4
Current wind is above 310° avg. (6.6)
Visibility9999 m
Phenomena:N/A
Clouds:Few 055 Hf
Expected CloudBase > 2,000 ft AGL from Temp-Dew spread
CeilingNone
Temp22°C (ISA +7)
Dew Point17°C (73% RH)
AAT20.4°C
QNH1019 hPa
Density Alt896 ft
Elevation20 ft
Report Wrong Elevation
Raw Report
LEBL 190400Z 31011KT 9999 FEW055 22/17 Q1019 NOSIG=

Extra information for LEBL:More info

Metar Taf Metar & Taf Last 4 Metars F.Rules Stats Wind Profile Meteogram Temp Stats Airport Information Weather charts Add Link Nearby VenuesMetar ALERT Operation Metar Decoded Social comments